Time;durP1;ratioP1;P1;durP2;ratioP2;P2;SDS_P1;SDS_P2;PMS_P1;PMS_P2;Temp;Humidity;BMP_temperature;BMP_pressure;BME280_temperature;BME280_humidity;BME280_pressure;Samples;Min_cycle;Max_cycle;Signal;HPM_P1;HPM_P2
2023/06/22 00:01:55;;;;;;;3.75;2.28;;;;;;;8.00;100.00;101326.13;5037668;28;20403;-84
2023/06/22 00:04:21;;;;;;;3.95;2.08;;;;;;;8.17;100.00;101346.75;5054233;28;20033;-84
2023/06/22 00:06:46;;;;;;;3.58;1.90;;;;;;;8.14;100.00;101331.81;5037599;28;20131;-84
2023/06/22 00:09:12;;;;;;;6.00;2.45;;;;;;;8.02;100.00;101316.94;5053746;28;20056;-84
2023/06/22 00:11:37;;;;;;;3.75;2.00;;;;;;;8.02;100.00;101341.03;5054149;28;20104;-87
2023/06/22 00:14:04;;;;;;;8.40;2.03;;;;;;;7.75;100.00;101317.69;5053640;28;20083;-84
2023/06/22 00:16:30;;;;;;;4.65;1.85;;;;;;;7.78;100.00;101336.16;5021054;28;20040;-85
2023/06/22 00:18:56;;;;;;;2.97;1.30;;;;;;;7.81;100.00;101346.59;5037165;28;20036;-84
2023/06/22 00:21:21;;;;;;;3.47;2.05;;;;;;;7.78;100.00;101329.94;5054123;28;20021;-86
2023/06/22 00:23:47;;;;;;;6.55;2.58;;;;;;;7.80;100.00;101341.34;5054872;28;20035;-84
2023/06/22 00:26:13;;;;;;;4.90;2.30;;;;;;;7.80;100.00;101357.44;5020937;28;20383;-84
2023/06/22 00:28:39;;;;;;;4.88;2.50;;;;;;;7.55;100.00;101313.38;5020787;28;20099;-86
2023/06/22 00:31:05;;;;;;;5.00;1.80;;;;;;;7.74;100.00;101350.81;5054762;28;20041;-84
2023/06/22 00:33:31;;;;;;;3.60;1.83;;;;;;;7.74;100.00;101361.53;5053141;28;20056;-85
2023/06/22 00:35:57;;;;;;;2.70;1.65;;;;;;;7.67;100.00;101352.34;5053447;28;20060;-83
2023/06/22 00:38:22;;;;;;;4.88;2.22;;;;;;;7.63;100.00;101349.13;5036669;28;20036;-83
2023/06/22 00:40:48;;;;;;;3.42;1.90;;;;;;;7.66;100.00;101342.66;5053289;28;20108;-83
2023/06/22 00:43:14;;;;;;;2.55;1.42;;;;;;;7.68;100.00;101354.06;5036832;28;20041;-85
2023/06/22 00:45:39;;;;;;;3.50;2.00;;;;;;;7.60;100.00;101348.59;5053088;28;20025;-83
2023/06/22 00:48:06;;;;;;;4.78;2.35;;;;;;;7.52;100.00;101348.44;5053345;28;20033;-84
2023/06/22 00:50:33;;;;;;;4.10;2.13;;;;;;;7.40;100.00;101347.72;5020293;28;20032;-85
2023/06/22 00:53:09;;;;;;;3.42;1.65;;;;;;;7.19;100.00;101337.16;5004011;28;20045;-84
2023/06/22 00:55:46;;;;;;;2.80;1.83;;;;;;;7.18;100.00;101356.88;5036941;28;20032;-85
2023/06/22 00:58:13;;;;;;;2.92;1.85;;;;;;;7.16;100.00;101351.66;5037180;28;20445;-86
2023/06/22 01:00:40;;;;;;;6.72;2.08;;;;;;;7.21;100.00;101361.94;5036342;28;20033;-84
2023/06/22 01:03:08;;;;;;;5.40;2.28;;;;;;;7.19;100.00;101358.56;5052962;28;20037;-84
2023/06/22 01:05:35;;;;;;;3.90;2.17;;;;;;;7.10;100.00;101349.53;5038739;28;20443;-85
2023/06/22 01:08:31;;;;;;;5.15;2.17;;;;;;;7.23;100.00;101370.69;5023507;28;20036;-85
2023/06/22 01:11:30;;;;;;;3.33;2.13;;;;;;;7.15;100.00;101375.88;5037477;28;20475;-85
2023/06/22 01:14:01;;;;;;;2.65;1.65;;;;;;;7.21;100.00;101372.66;5010342;28;20048;-85
2023/06/22 01:16:31;;;;;;;4.40;2.08;;;;;;;7.30;100.00;101377.13;5052841;28;20045;-85
2023/06/22 01:19:01;;;;;;;3.45;1.60;;;;;;;7.22;100.00;101352.91;5019901;28;20116;-85
2023/06/22 01:21:31;;;;;;;2.17;1.63;;;;;;;7.32;100.00;101366.31;5019893;28;20033;-86
2023/06/22 01:24:06;;;;;;;4.10;2.22;;;;;;;7.27;100.00;101369.41;5052394;28;20033;-84
2023/06/22 01:26:41;;;;;;;5.63;1.80;;;;;;;7.25;100.00;101361.53;5052735;28;20068;-86
2023/06/22 01:29:08;;;;;;;3.97;2.10;;;;;;;7.20;100.00;101369.13;5036086;28;20479;-85
2023/06/22 01:31:35;;;;;;;3.45;1.73;;;;;;;6.87;100.00;101324.03;5052302;28;20451;-85
2023/06/22 01:34:03;;;;;;;6.93;1.83;;;;;;;6.96;100.00;101337.44;5052590;28;20052;-84
2023/06/22 01:36:31;;;;;;;3.63;1.80;;;;;;;6.79;100.00;101330.06;5019661;28;20032;-86
2023/06/22 01:38:57;;;;;;;3.45;1.75;;;;;;;6.91;100.00;101352.19;5035899;28;20041;-84
2023/06/22 01:41:25;;;;;;;5.47;2.08;;;;;;;6.80;100.00;101348.66;5019515;28;20110;-84
2023/06/22 01:43:51;;;;;;;5.10;1.83;;;;;;;6.83;100.00;101360.91;5051675;28;20107;-87
2023/06/22 01:46:19;;;;;;;3.50;2.05;;;;;;;6.75;100.00;101352.72;5035897;28;20049;-84
2023/06/22 01:48:45;;;;;;;5.28;2.05;;;;;;;6.72;100.00;101347.63;5052376;28;20131;-84
2023/06/22 01:51:11;;;;;;;3.75;2.03;;;;;;;6.81;100.00;101362.84;5019380;28;20475;-86
2023/06/22 01:53:36;;;;;;;2.25;1.42;;;;;;;6.79;100.00;101354.13;5035661;28;20079;-86
2023/06/22 01:56:02;;;;;;;3.67;1.88;;;;;;;6.84;100.00;101359.91;5053459;28;20066;-86
2023/06/22 01:58:29;;;;;;;3.45;1.70;;;;;;;6.82;100.00;101367.19;5051987;28;20086;-85
2023/06/22 02:01:12;;;;;;;3.13;1.92;;;;;;;6.75;100.00;101355.38;5051711;28;20044;-85
2023/06/22 02:03:43;;;;;;;3.63;1.77;;;;;;;6.77;100.00;101370.31;5019366;28;20040;-85
2023/06/22 02:06:25;;;;;;;3.58;1.65;;;;;;;6.73;100.00;101362.69;5035477;28;20140;-85
2023/06/22 02:08:55;;;;;;;4.20;2.03;;;;;;;6.77;100.00;101375.66;5019278;28;20550;-85
2023/06/22 02:11:21;;;;;;;5.10;2.15;;;;;;;6.69;100.00;101363.94;5052157;28;20150;-85
2023/06/22 02:13:47;;;;;;;2.38;1.65;;;;;;;6.69;100.00;101367.44;5019269;28;20079;-86
2023/06/22 02:16:14;;;;;;;2.33;1.60;;;;;;;6.55;100.00;101362.47;5019188;28;20144;-86
2023/06/22 02:18:52;;;;;;;2.92;1.70;;;;;;;6.58;100.00;101376.41;5035517;28;20061;-86
2023/06/22 02:21:19;;;;;;;2.83;1.73;;;;;;;6.48;100.00;101362.16;5004181;28;20137;-85
2023/06/22 02:23:44;;;;;;;2.85;2.00;;;;;;;6.56;100.00;101369.50;5002896;28;20128;-85
2023/06/22 02:26:10;;;;;;;2.58;1.67;;;;;;;6.60;100.00;101377.13;5053033;28;20108;-87
2023/06/22 02:28:35;;;;;;;3.38;1.83;;;;;;;6.52;100.00;101368.94;5053147;28;20040;-85
2023/06/22 02:31:01;;;;;;;2.55;1.70;;;;;;;6.43;100.00;101360.88;5019142;28;20033;-85
2023/06/22 02:33:27;;;;;;;3.90;1.77;;;;;;;6.41;100.00;101366.38;5051926;28;20033;-85
2023/06/22 02:35:53;;;;;;;1.98;1.60;;;;;;;6.41;100.00;101360.19;5051565;28;20056;-86
2023/06/22 02:38:19;;;;;;;3.17;1.80;;;;;;;6.53;100.00;101380.47;5052016;28;20460;-85
2023/06/22 02:40:46;;;;;;;3.22;1.88;;;;;;;6.50;100.00;101362.88;5051539;28;20489;-86
2023/06/22 02:43:12;;;;;;;2.67;1.55;;;;;;;6.48;100.00;101362.16;5035547;28;20036;-86
2023/06/22 02:45:38;;;;;;;3.45;1.98;;;;;;;6.58;100.00;101378.25;5052930;28;20055;-86
2023/06/22 02:48:04;;;;;;;2.72;1.83;;;;;;;6.47;100.00;101354.28;5051789;28;20037;-86
2023/06/22 02:50:30;;;;;;;4.13;1.58;;;;;;;6.42;100.00;101357.38;5035087;28;20055;-86
2023/06/22 02:52:56;;;;;;;2.40;1.58;;;;;;;6.44;100.00;101359.91;5035181;28;20025;-86
2023/06/22 02:55:23;;;;;;;2.92;1.60;;;;;;;6.44;100.00;101365.25;5052682;28;20135;-87
2023/06/22 02:57:52;;;;;;;3.65;1.80;;;;;;;6.44;100.00;101376.78;5055443;28;20029;-86
2023/06/22 03:00:19;;;;;;;4.75;1.50;;;;;;;6.41;100.00;101368.19;5055279;28;20099;-85
2023/06/22 03:02:45;;;;;;;2.95;1.90;;;;;;;6.42;100.00;101368.03;5038854;28;20102;-86
2023/06/22 03:05:13;;;;;;;2.40;1.52;;;;;;;6.30;100.00;101353.09;5054839;28;20033;-86
2023/06/22 03:07:42;;;;;;;4.35;1.80;;;;;;;6.21;100.00;101338.72;5038946;28;20060;-86
2023/06/22 03:10:10;;;;;;;2.97;1.65;;;;;;;6.34;100.00;101359.84;5038482;28;20086;-85
2023/06/22 03:12:37;;;;;;;3.20;2.13;;;;;;;6.37;100.00;101363.09;5022121;28;20029;-86
2023/06/22 03:15:06;;;;;;;5.05;1.73;;;;;;;6.23;100.00;101343.94;5022119;28;20052;-85
2023/06/22 03:17:33;;;;;;;4.10;1.92;;;;;;;6.34;100.00;101359.84;5006146;28;20037;-86
2023/06/22 03:19:59;;;;;;;4.60;2.25;;;;;;;6.34;100.00;101357.19;5021688;28;20438;-86
2023/06/22 03:22:24;;;;;;;3.08;1.65;;;;;;;6.43;100.00;101352.84;5056071;28;20025;-85
2023/06/22 03:24:50;;;;;;;4.18;1.83;;;;;;;6.45;100.00;101350.91;5054595;28;20032;-86
2023/06/22 03:27:15;;;;;;;2.75;1.63;;;;;;;6.38;100.00;101339.94;5038268;28;20029;-86
2023/06/22 03:29:41;;;;;;;3.20;1.77;;;;;;;6.19;100.00;101311.28;5021892;28;20066;-86
2023/06/22 03:32:07;;;;;;;5.85;1.58;;;;;;;6.36;100.00;101347.22;5054700;28;20479;-87
2023/06/22 03:34:34;;;;;;;2.78;1.83;;;;;;;6.29;100.00;101325.53;5054359;28;20075;-87
2023/06/22 03:36:59;;;;;;;4.30;1.88;;;;;;;6.35;100.00;101350.84;5037921;28;20040;-87
2023/06/22 03:39:25;;;;;;;3.25;2.00;;;;;;;6.29;100.00;101343.38;5038065;28;20033;-86
2023/06/22 03:41:51;;;;;;;3.22;1.67;;;;;;;6.24;100.00;101350.94;5038260;28;20044;-87
2023/06/22 03:44:16;;;;;;;4.93;2.15;;;;;;;6.27;100.00;101358.69;5054206;28;20483;-86
2023/06/22 03:46:42;;;;;;;7.30;2.08;;;;;;;6.21;100.00;101354.72;5054425;28;20025;-86
2023/06/22 03:49:07;;;;;;;3.42;2.03;;;;;;;6.23;100.00;101365.28;5037708;28;20051;-86
2023/06/22 03:51:33;;;;;;;3.35;1.67;;;;;;;6.23;100.00;101363.47;5037779;28;20047;-86
2023/06/22 03:53:59;;;;;;;4.07;2.38;;;;;;;6.34;100.00;101362.53;5037664;28;20029;-88
2023/06/22 03:56:24;;;;;;;3.13;2.00;;;;;;;6.34;100.00;101355.34;5037947;28;20041;-87
2023/06/22 03:58:50;;;;;;;3.65;1.67;;;;;;;6.34;100.00;101349.19;5054186;28;20360;-87
2023/06/22 04:01:17;;;;;;;3.60;1.70;;;;;;;6.25;100.00;101337.47;5054998;28;20426;-87
2023/06/22 04:03:42;;;;;;;4.18;2.03;;;;;;;6.27;100.00;101327.53;5054990;28;20029;-88
2023/06/22 04:06:09;;;;;;;3.80;2.05;;;;;;;6.49;100.00;101360.34;5053800;28;20029;-87
2023/06/22 04:08:34;;;;;;;4.40;2.30;;;;;;;6.46;100.00;101353.47;5036641;28;20102;-89
2023/06/22 04:11:00;;;;;;;3.15;1.73;;;;;;;6.58;100.00;101373.72;5053792;28;20056;-86
2023/06/22 04:13:25;;;;;;;2.67;1.75;;;;;;;6.53;100.00;101367.09;5037407;28;20039;-88
2023/06/22 04:15:51;;;;;;;3.05;1.80;;;;;;;6.56;100.00;101364.16;5065518;28;20017;-87
2023/06/22 04:18:17;;;;;;;2.30;1.20;;;;;;;6.60;100.00;101365.59;5067793;28;20384;-86
2023/06/22 04:20:44;;;;;;;4.57;2.28;;;;;;;6.61;100.00;101367.28;5065924;28;20079;-86
2023/06/22 04:23:10;;;;;;;4.80;1.90;;;;;;;6.63;100.00;101364.47;5055443;28;20079;-87
2023/06/22 04:25:35;;;;;;;6.10;1.92;;;;;;;6.65;100.00;101367.88;5055228;28;20040;-87
2023/06/22 04:28:03;;;;;;;3.42;1.90;;;;;;;6.62;100.00;101352.13;5053793;28;20033;-88
2023/06/22 04:30:28;;;;;;;3.38;1.75;;;;;;;6.64;100.00;101342.13;5054752;28;20032;-87
2023/06/22 04:32:57;;;;;;;2.13;1.42;;;;;;;6.56;100.00;101332.97;5036921;28;20379;-88
2023/06/22 04:35:26;;;;;;;4.65;2.28;;;;;;;6.90;100.00;101378.06;5054781;28;20045;-87
2023/06/22 04:37:54;;;;;;;4.30;2.25;;;;;;;6.86;100.00;101352.59;5053120;28;20104;-88
2023/06/22 04:40:24;;;;;;;2.75;1.70;;;;;;;7.03;100.00;101369.78;5036838;28;20036;-87
2023/06/22 04:42:53;;;;;;;2.40;1.73;;;;;;;6.97;100.00;101347.13;5054932;28;20059;-87
2023/06/22 04:45:20;;;;;;;5.93;2.20;;;;;;;7.33;100.00;101376.03;5037382;28;20471;-86
2023/06/22 04:47:46;;;;;;;3.80;2.00;;;;;;;7.49;100.00;101385.19;5020496;28;20037;-87
2023/06/22 04:50:12;;;;;;;5.25;2.03;;;;;;;7.67;100.00;101382.66;5036783;28;20032;-88
2023/06/22 04:52:38;;;;;;;5.45;2.08;;;;;;;7.80;100.00;101381.50;5052885;28;20095;-87
2023/06/22 04:55:04;;;;;;;3.63;1.98;;;;;;;7.81;100.00;101369.84;5036584;28;20430;-87
2023/06/22 04:57:33;;;;;;;3.47;2.00;;;;;;;8.07;100.00;101372.72;5020157;28;20041;-87
2023/06/22 05:00:12;;;;;;;3.28;2.00;;;;;;;8.73;100.00;101375.38;5053042;28;20464;-87
2023/06/22 05:02:41;;;;;;;3.45;2.15;;;;;;;9.42;100.00;101391.88;5052914;28;20052;-88
2023/06/22 05:05:08;;;;;;;4.28;2.33;;;;;;;9.85;100.00;101390.25;5052845;28;20040;-89
2023/06/22 05:07:34;;;;;;;4.80;2.13;;;;;;;10.26;100.00;101387.84;5036478;28;20037;-87
2023/06/22 05:10:12;;;;;;;4.85;2.42;;;;;;;10.42;100.00;101371.00;5036383;28;20040;-88
2023/06/22 05:12:38;;;;;;;5.85;2.10;;;;;;;10.76;100.00;101381.75;5020670;28;20114;-86
2023/06/22 05:15:05;;;;;;;7.03;2.42;;;;;;;11.18;100.00;101384.44;5019481;28;20068;-86
2023/06/22 05:17:31;;;;;;;5.68;2.30;;;;;;;11.60;100.00;101380.78;5019910;28;20033;-87
2023/06/22 05:19:57;;;;;;;4.05;2.13;;;;;;;12.15;100.00;101400.88;5052744;28;20032;-87
2023/06/22 05:22:22;;;;;;;4.53;2.38;;;;;;;12.49;100.00;101388.97;5052845;28;20486;-86
2023/06/22 05:24:48;;;;;;;2.55;1.83;;;;;;;12.78;100.00;101399.19;5053839;28;20032;-86
2023/06/22 05:27:14;;;;;;;3.33;2.00;;;;;;;13.05;100.00;101410.53;5052388;28;20054;-85
2023/06/22 05:29:39;;;;;;;3.17;2.00;;;;;;;13.20;100.00;101395.25;5053159;28;20029;-87
2023/06/22 05:32:06;;;;;;;3.38;2.20;;;;;;;13.54;100.00;101397.59;5036377;28;20029;-86
2023/06/22 05:34:31;;;;;;;2.83;1.92;;;;;;;13.90;100.00;101409.69;5053148;28;20509;-89
2023/06/22 05:36:58;;;;;;;5.10;2.15;;;;;;;14.18;100.00;101412.63;5053789;28;20064;-86
2023/06/22 05:39:24;;;;;;;4.43;2.20;;;;;;;14.49;100.00;101412.50;5052504;28;20125;-86
2023/06/22 05:41:50;;;;;;;3.63;1.85;;;;;;;14.76;100.00;101400.19;5035936;28;20124;-86
2023/06/22 05:44:15;;;;;;;3.45;1.92;;;;;;;15.09;100.00;101397.94;5052372;28;20478;-87
2023/06/22 05:46:44;;;;;;;5.32;2.15;;;;;;;15.26;100.00;101419.38;5035880;28;20036;-87
2023/06/22 05:49:11;;;;;;;3.17;2.40;;;;;;;15.55;100.00;101415.72;5036156;28;20532;-87
2023/06/22 05:51:39;;;;;;;4.07;2.10;;;;;;;15.78;100.00;101424.53;5019488;28;20498;-88
2023/06/22 05:54:05;;;;;;;4.50;2.33;;;;;;;15.85;100.00;101419.19;5052665;28;20029;-86
2023/06/22 05:56:32;;;;;;;2.97;1.90;;;;;;;16.09;100.00;101425.22;5035715;28;20052;-87
2023/06/22 05:58:58;;;;;;;3.65;1.58;;;;;;;15.06;100.00;101414.56;5052138;28;20025;-83
2023/06/22 06:01:25;;;;;;;4.70;2.30;;;;;;;14.04;100.00;101412.41;5035437;28;20041;-84
2023/06/22 06:03:52;;;;;;;2.17;1.52;;;;;;;13.50;100.00;101408.97;5052296;28;20033;-85
2023/06/22 06:06:21;;;;;;;6.22;2.10;;;;;;;14.24;100.00;101420.88;5035654;28;20029;-84
2023/06/22 06:08:46;;;;;;;2.90;1.90;;;;;;;15.16;100.00;101387.16;5052238;28;20107;-89
2023/06/22 06:11:12;;;;;;;3.28;2.08;;;;;;;16.23;100.00;101413.47;5052136;28;20420;-85
2023/06/22 06:13:38;;;;;;;4.47;2.40;;;;;;;16.91;98.12;101408.28;5053234;28;20029;-85
2023/06/22 06:16:03;;;;;;;4.38;2.10;;;;;;;17.45;93.07;101420.19;5052182;28;20437;-85
2023/06/22 06:18:29;;;;;;;3.30;2.30;;;;;;;17.80;91.65;101405.41;5052097;28;20065;-85
2023/06/22 06:20:54;;;;;;;2.95;2.10;;;;;;;18.13;89.84;101417.38;5051993;28;20063;-85
2023/06/22 06:23:20;;;;;;;5.40;2.25;;;;;;;18.60;88.85;101426.28;5052086;28;20463;-84
2023/06/22 06:25:46;;;;;;;3.72;1.88;;;;;;;19.01;85.57;101425.19;5052048;28;20383;-87
2023/06/22 06:28:11;;;;;;;3.28;2.25;;;;;;;19.41;83.95;101419.53;5051946;28;20094;-87
2023/06/22 06:30:37;;;;;;;4.63;2.08;;;;;;;19.65;80.98;101417.91;5053397;28;20029;-87
2023/06/22 06:33:04;;;;;;;3.08;1.90;;;;;;;19.90;79.51;101424.28;5038808;28;20368;-88
2023/06/22 06:35:30;;;;;;;2.53;1.92;;;;;;;20.06;77.57;101422.91;5075415;28;20067;-86
2023/06/22 06:37:56;;;;;;;3.00;2.08;;;;;;;20.33;76.18;101419.94;5032660;28;20057;-85
2023/06/22 06:40:22;;;;;;;3.78;2.05;;;;;;;20.41;73.80;101430.56;5055916;28;20052;-87
2023/06/22 06:42:48;;;;;;;4.72;2.22;;;;;;;20.52;74.98;101427.09;5055504;28;20460;-89
2023/06/22 06:45:22;;;;;;;3.83;2.30;;;;;;;20.85;76.49;101423.19;5039376;28;20044;-85
2023/06/22 06:47:48;;;;;;;3.88;1.77;;;;;;;21.48;73.94;101424.75;5039874;28;20043;-87
2023/06/22 06:50:14;;;;;;;4.78;2.58;;;;;;;21.83;72.17;101424.88;5055998;28;20475;-86
2023/06/22 06:52:40;;;;;;;3.22;2.28;;;;;;;22.24;69.70;101422.31;5039044;28;20068;-90
2023/06/22 06:55:09;;;;;;;3.67;2.35;;;;;;;22.67;69.34;101430.16;5055522;28;20123;-87
2023/06/22 06:57:36;;;;;;;4.32;2.20;;;;;;;23.13;66.10;101431.19;5055389;28;20464;-87
2023/06/22 07:00:13;;;;;;;4.18;2.13;;;;;;;23.39;63.30;101429.78;5039439;28;20056;-87
2023/06/22 07:02:40;;;;;;;6.10;2.25;;;;;;;23.47;62.52;101428.53;5040125;28;20082;-89
2023/06/22 07:05:06;;;;;;;4.28;2.10;;;;;;;23.77;61.38;101427.50;5038680;28;20033;-88
2023/06/22 07:07:32;;;;;;;3.35;2.08;;;;;;;23.83;59.41;101424.56;5055667;28;20036;-86
2023/06/22 07:09:57;;;;;;;3.17;2.25;;;;;;;23.87;58.94;101419.44;5055642;28;20029;-89
2023/06/22 07:12:27;;;;;;;4.70;2.33;;;;;;;23.96;59.95;101428.09;5022943;28;20037;-92
2023/06/22 07:14:53;;;;;;;3.60;2.03;;;;;;;24.13;57.27;101427.00;5061422;28;20059;-95
2023/06/22 07:17:19;;;;;;;4.03;1.80;;;;;;;24.26;53.02;101434.06;5048898;28;20033;-94
2023/06/22 07:19:45;;;;;;;4.28;1.83;;;;;;;23.70;52.94;101409.19;5027965;28;20054;-92
2023/06/22 07:22:10;;;;;;;2.70;2.10;;;;;;;23.46;55.85;101422.22;5056228;28;20112;-93
2023/06/22 07:24:37;;;;;;;4.45;2.00;;;;;;;23.83;56.66;101430.06;5039105;28;20056;-91
2023/06/22 07:27:03;;;;;;;6.30;2.08;;;;;;;24.10;54.01;101416.50;5039554;28;20032;-92
2023/06/22 07:29:29;;;;;;;4.38;2.20;;;;;;;24.53;53.62;101411.41;5056100;28;20029;-92
2023/06/22 07:31:56;;;;;;;3.17;2.03;;;;;;;24.95;51.70;101417.22;5039999;28;20028;-92
2023/06/22 07:34:22;;;;;;;1.88;1.45;;;;;;;25.40;47.90;101413.38;5076247;28;20052;-90
2023/06/22 07:36:48;;;;;;;6.53;2.28;;;;;;;25.65;49.73;101403.69;5080271;28;20042;-88
2023/06/22 07:39:14;;;;;;;4.53;1.88;;;;;;;26.18;44.94;101420.41;5057595;28;20041;-91
2023/06/22 07:41:43;;;;;;;1.88;1.45;;;;;;;26.04;45.69;101415.34;5057033;28;20021;-85
2023/06/22 07:44:09;;;;;;;3.05;1.58;;;;;;;26.15;45.83;101398.91;5054750;28;20021;-85
2023/06/22 07:46:34;;;;;;;3.50;2.30;;;;;;;26.04;44.21;101392.47;5021348;28;20048;-84
2023/06/22 07:49:01;;;;;;;4.18;2.08;;;;;;;26.41;44.56;101419.19;5037624;28;20029;-84
2023/06/22 07:51:26;;;;;;;2.55;2.10;;;;;;;26.86;44.51;101426.06;5054311;28;20060;-84
2023/06/22 07:53:52;;;;;;;3.05;2.10;;;;;;;27.35;42.12;101410.00;5021388;28;20033;-84
2023/06/22 07:56:20;;;;;;;6.90;2.30;;;;;;;27.60;41.49;101419.44;5054232;28;20033;-83
2023/06/22 07:58:46;;;;;;;2.58;1.98;;;;;;;27.99;40.20;101411.47;5037851;28;20040;-85
2023/06/22 08:01:12;;;;;;;4.00;2.20;;;;;;;28.07;39.39;101412.84;5021102;28;20064;-84
2023/06/22 08:03:39;;;;;;;3.38;2.10;;;;;;;28.39;39.55;101404.22;5037579;28;20128;-84
2023/06/22 08:06:09;;;;;;;3.65;2.00;;;;;;;28.52;37.93;101408.38;5054102;28;20098;-84
2023/06/22 08:08:35;;;;;;;3.88;2.20;;;;;;;28.57;38.51;101402.84;5054104;28;20040;-85
2023/06/22 08:11:01;;;;;;;3.80;2.22;;;;;;;28.60;38.40;101390.38;5021016;28;20059;-87
2023/06/22 08:13:27;;;;;;;4.30;2.90;;;;;;;28.93;37.68;101405.50;5037387;28;20029;-85
2023/06/22 08:15:52;;;;;;;5.45;1.98;;;;;;;28.90;37.87;101404.13;5037207;28;20032;-84
2023/06/22 08:18:18;;;;;;;4.32;2.10;;;;;;;29.15;37.36;101399.59;5053929;28;20044;-85
2023/06/22 08:20:43;;;;;;;4.13;2.28;;;;;;;29.22;37.32;101404.84;5036830;28;20058;-87
2023/06/22 08:23:09;;;;;;;3.88;2.55;;;;;;;29.30;36.07;101384.84;5037316;28;20025;-87
2023/06/22 08:25:35;;;;;;;3.78;2.10;;;;;;;29.42;35.67;101390.00;5053394;28;20029;-86
2023/06/22 08:28:02;;;;;;;4.90;2.10;;;;;;;29.74;35.54;101400.59;5053683;28;20099;-86
2023/06/22 08:30:27;;;;;;;3.80;2.00;;;;;;;30.09;35.78;101402.25;5038212;28;20490;-86
2023/06/22 08:32:56;;;;;;;2.35;1.90;;;;;;;30.37;34.69;101397.00;5030432;28;20033;-86
2023/06/22 08:35:25;;;;;;;6.40;2.63;;;;;;;30.38;34.49;101387.56;5060815;28;20052;-88
2023/06/22 08:37:52;;;;;;;3.88;2.10;;;;;;;30.59;34.15;101402.88;5058638;28;20040;-88
2023/06/22 08:40:19;;;;;;;4.78;2.30;;;;;;;30.73;34.56;101391.06;5053513;28;20391;-87
2023/06/22 08:42:46;;;;;;;5.07;1.75;;;;;;;30.82;32.04;101395.69;5020674;28;20115;-88
2023/06/22 08:45:12;;;;;;;3.33;2.10;;;;;;;30.56;34.45;101395.13;5036974;28;20033;-86
2023/06/22 08:47:39;;;;;;;3.15;1.90;;;;;;;31.23;32.91;101381.25;5020535;28;20061;-87
2023/06/22 08:50:08;;;;;;;2.95;2.25;;;;;;;31.33;32.45;101391.38;5036381;28;20502;-86
2023/06/22 08:52:35;;;;;;;4.68;2.30;;;;;;;31.17;32.20;101378.81;5054033;28;20037;-87
2023/06/22 08:55:00;;;;;;;3.20;2.17;;;;;;;31.30;31.30;101403.09;5053058;28;20090;-86
2023/06/22 08:57:27;;;;;;;3.85;2.15;;;;;;;31.75;31.28;101400.75;5036223;28;20033;-87
2023/06/22 08:59:53;;;;;;;3.05;2.03;;;;;;;31.86;30.67;101399.47;5020092;28;20029;-87
2023/06/22 09:02:19;;;;;;;2.85;2.10;;;;;;;31.76;30.72;101388.53;5036693;28;20250;-87
2023/06/22 09:04:48;;;;;;;3.92;1.90;;;;;;;31.51;31.84;101395.31;5020154;28;20036;-87
2023/06/22 09:07:14;;;;;;;2.55;1.88;;;;;;;31.27;31.35;101403.69;5036498;28;20051;-87
2023/06/22 09:09:39;;;;;;;4.13;2.15;;;;;;;31.21;31.32;101399.34;5053104;28;20033;-87
2023/06/22 09:12:06;;;;;;;5.20;2.60;;;;;;;31.35;30.97;101396.63;5020018;28;20033;-86
2023/06/22 09:14:31;;;;;;;7.68;4.88;;;;;;;31.01;30.48;101415.13;5052819;28;20075;-87
2023/06/22 09:16:57;;;;;;;2.80;2.22;;;;;;;30.10;31.20;101394.75;5054034;28;20029;-87
2023/06/22 09:19:22;;;;;;;4.65;2.30;;;;;;;29.84;33.14;101413.56;5052858;28;20071;-86
2023/06/22 09:21:48;;;;;;;3.38;2.10;;;;;;;30.11;32.16;101415.81;5052474;28;20029;-86
2023/06/22 09:24:14;;;;;;;4.15;2.60;;;;;;;30.19;31.85;101396.63;5036194;28;20028;-86
2023/06/22 09:26:39;;;;;;;6.38;3.85;;;;;;;30.49;32.32;101413.28;5036129;28;20057;-87
2023/06/22 09:29:06;;;;;;;5.50;3.35;;;;;;;30.68;32.04;101428.03;5036058;28;20033;-88
2023/06/22 09:31:31;;;;;;;5.47;4.30;;;;;;;30.58;32.60;101422.59;5019774;28;20068;-86
2023/06/22 09:33:57;;;;;;;5.88;3.80;;;;;;;30.39;32.84;101422.53;5036047;28;20059;-87
2023/06/22 09:36:23;;;;;;;4.78;3.00;;;;;;;30.35;32.98;101415.88;5036206;28;20391;-88
2023/06/22 09:38:55;;;;;;;4.93;2.92;;;;;;;30.48;33.45;101417.16;5036444;28;20044;-90
2023/06/22 09:41:20;;;;;;;12.85;8.80;;;;;;;30.90;33.78;101410.84;5052445;28;20430;-87
2023/06/22 09:43:47;;;;;;;4.18;2.78;;;;;;;31.65;31.90;101401.75;5036014;28;20032;-84
2023/06/22 09:46:15;;;;;;;4.10;2.90;;;;;;;31.17;32.05;101392.72;5052471;28;20025;-86
2023/06/22 09:48:41;;;;;;;2.85;2.30;;;;;;;30.89;33.09;101410.03;5052600;28;20039;-87
2023/06/22 09:51:07;;;;;;;5.38;2.80;;;;;;;30.61;33.16;101406.16;5035630;28;20458;-86
2023/06/22 09:53:34;;;;;;;4.70;2.63;;;;;;;30.74;33.58;101418.50;5052373;28;20391;-85
2023/06/22 09:56:01;;;;;;;4.93;2.65;;;;;;;30.88;33.71;101421.41;5052383;28;20021;-87
2023/06/22 09:58:27;;;;;;;6.15;3.38;;;;;;;31.25;33.97;101420.69;5053413;28;20037;-86
2023/06/22 10:00:54;;;;;;;3.70;2.70;;;;;;;31.58;33.08;101409.66;5052113;28;20036;-86
2023/06/22 10:03:20;;;;;;;3.58;2.97;;;;;;;31.79;33.05;101424.06;5035693;28;20068;-86
2023/06/22 10:05:46;;;;;;;5.75;3.33;;;;;;;31.80;32.89;101405.41;5053786;28;20037;-84
2023/06/22 10:08:12;;;;;;;4.88;2.50;;;;;;;32.14;32.33;101417.06;5056024;28;20029;-85
2023/06/22 10:10:38;;;;;;;3.70;2.80;;;;;;;31.81;32.86;101430.16;5039569;28;20033;-85
2023/06/22 10:13:10;;;;;;;4.50;2.83;;;;;;;31.60;34.18;101431.56;5039478;28;20025;-86
2023/06/22 10:15:35;;;;;;;4.82;3.17;;;;;;;30.87;34.70;101411.44;5023363;28;20036;-87
2023/06/22 10:18:01;;;;;;;5.07;2.42;;;;;;;31.76;33.12;101438.56;5039680;28;20037;-84
2023/06/22 10:20:28;;;;;;;2.70;2.13;;;;;;;31.87;32.01;101417.78;5039355;28;20029;-85
2023/06/22 10:22:54;;;;;;;3.25;2.08;;;;;;;31.32;32.41;101436.97;5056898;28;20025;-87
2023/06/22 10:25:19;;;;;;;3.33;2.15;;;;;;;31.22;34.00;101423.22;5055986;28;20360;-85
2023/06/22 10:27:45;;;;;;;3.97;2.50;;;;;;;31.82;33.08;101426.22;5039400;28;20032;-86
2023/06/22 10:30:15;;;;;;;3.15;2.53;;;;;;;31.27;32.00;101409.25;5055568;28;20037;-85
2023/06/22 10:32:42;;;;;;;3.40;3.08;;;;;;;29.21;36.64;101426.13;5023499;28;20044;-87
2023/06/22 10:35:10;;;;;;;4.18;2.78;;;;;;;30.36;34.67;101425.88;5055737;28;20021;-85
2023/06/22 10:37:44;;;;;;;4.10;2.20;;;;;;;30.23;34.80;101428.22;5040280;28;20041;-86
2023/06/22 10:40:13;;;;;;;3.25;2.25;;;;;;;30.70;34.28;101431.34;5055630;28;20039;-86
2023/06/22 10:42:39;;;;;;;5.15;2.20;;;;;;;31.37;34.22;101441.63;5055765;28;20460;-85
2023/06/22 10:45:05;;;;;;;3.50;2.70;;;;;;;31.82;32.39;101431.78;5040124;28;20040;-87
2023/06/22 10:47:31;;;;;;;4.00;2.63;;;;;;;31.97;32.66;101417.66;5024792;28;20036;-86
2023/06/22 10:49:57;;;;;;;3.17;2.30;;;;;;;32.51;31.49;101425.63;5024500;28;20047;-84
2023/06/22 10:52:22;;;;;;;3.92;2.45;;;;;;;32.26;32.20;101424.09;5041460;28;20136;-85
2023/06/22 10:54:48;;;;;;;3.05;2.22;;;;;;;32.96;31.18;101437.78;5048559;28;20123;-86
2023/06/22 10:57:13;;;;;;;3.83;2.13;;;;;;;32.47;29.96;101438.47;5068556;28;20017;-84
2023/06/22 10:59:39;;;;;;;3.50;2.53;;;;;;;31.92;31.07;101426.09;5073491;28;20037;-85
2023/06/22 11:02:05;;;;;;;2.95;2.17;;;;;;;31.73;31.01;101428.06;5062246;28;20025;-85
2023/06/22 11:04:30;;;;;;;3.47;2.22;;;;;;;30.50;32.85;101406.59;5022879;28;20028;-87
2023/06/22 11:06:56;;;;;;;5.18;2.15;;;;;;;31.41;32.13;101432.44;5038817;28;20041;-86
2023/06/22 11:09:22;;;;;;;3.83;2.25;;;;;;;31.87;31.06;101425.31;5038960;28;20080;-84
2023/06/22 11:11:49;;;;;;;3.47;2.20;;;;;;;32.25;32.44;101419.69;5038489;28;20068;-87
2023/06/22 11:14:14;;;;;;;2.28;1.98;;;;;;;32.69;29.64;101413.56;5022284;28;20041;-85
2023/06/22 11:16:40;;;;;;;4.10;2.10;;;;;;;32.25;30.88;101411.31;5054975;28;20036;-87
2023/06/22 11:19:06;;;;;;;3.38;2.00;;;;;;;32.23;30.92;101417.19;5038557;28;20033;-85
2023/06/22 11:21:32;;;;;;;3.05;2.38;;;;;;;32.54;31.17;101409.13;5021599;28;20033;-84
2023/06/22 11:23:58;;;;;;;4.50;2.30;;;;;;;32.43;30.83;101416.00;5038317;28;20033;-85